Time;durP1;ratioP1;P1;durP2;ratioP2;P2;SDS_P1;SDS_P2;PMS_P1;PMS_P2;Temp;Humidity;BMP_temperature;BMP_pressure;BME280_temperature;BME280_humidity;BME280_pressure;Samples;Min_cycle;Max_cycle;Signal;HPM_P1;HPM_P2
2023/01/09 00:01:35;;;;;;;0.57;0.40;;;10.20;80.80;;;;;;5079222;28;20048;-59
2023/01/09 00:04:01;;;;;;;2.25;0.65;;;10.20;80.80;;;;;;5064373;28;20033;-60
2023/01/09 00:06:27;;;;;;;1.58;0.82;;;10.10;80.90;;;;;;5093233;28;20125;-67
2023/01/09 00:08:53;;;;;;;0.65;0.43;;;10.10;81.20;;;;;;5082664;28;20048;-67
2023/01/09 00:11:19;;;;;;;0.50;0.30;;;10.00;81.30;;;;;;5091141;28;20475;-67
2023/01/09 00:13:46;;;;;;;0.30;0.30;;;10.00;81.50;;;;;;5090434;28;20036;-60
2023/01/09 00:16:12;;;;;;;0.43;0.43;;;10.00;81.40;;;;;;5093937;28;20025;-68
2023/01/09 00:18:38;;;;;;;0.60;0.43;;;10.00;81.50;;;;;;5093102;28;20020;-68
2023/01/09 00:21:06;;;;;;;0.30;0.30;;;10.00;81.30;;;;;;5071511;28;20038;-67
2023/01/09 00:23:32;;;;;;;0.55;0.45;;;10.00;81.30;;;;;;5094016;28;20368;-60
2023/01/09 00:26:15;;;;;;;0.60;0.40;;;9.90;81.20;;;;;;5072628;28;20077;-60
2023/01/09 00:28:41;;;;;;;1.10;0.73;;;10.00;81.00;;;;;;5088116;28;20041;-60
2023/01/09 00:31:08;;;;;;;1.02;0.45;;;10.00;80.80;;;;;;5082824;28;20032;-60
2023/01/09 00:34:09;;;;;;;0.40;0.40;;;10.00;80.60;;;;;;5089329;28;20433;-60
2023/01/09 00:36:35;;;;;;;0.45;0.45;;;10.00;80.40;;;;;;5002991;28;20073;-61
2023/01/09 00:39:01;;;;;;;0.40;0.40;;;9.90;80.60;;;;;;5075141;28;20494;-60
2023/01/09 00:41:28;;;;;;;2.97;0.75;;;9.90;80.60;;;;;;5109636;28;20012;-60
2023/01/09 00:43:57;;;;;;;0.10;0.10;;;9.90;80.60;;;;;;5096270;28;20494;-60
2023/01/09 00:46:29;;;;;;;1.02;0.20;;;9.80;80.60;;;;;;5075408;28;20024;-68
2023/01/09 00:48:55;;;;;;;0.40;0.40;;;9.80;80.70;;;;;;5095441;28;20102;-60
2023/01/09 00:51:21;;;;;;;0.52;0.40;;;9.70;80.50;;;;;;5089526;28;20172;-60
2023/01/09 00:53:47;;;;;;;3.50;0.35;;;9.70;80.50;;;;;;5107047;28;20054;-67
2023/01/09 00:56:17;;;;;;;0.57;0.25;;;9.70;80.50;;;;;;5108911;28;20026;-67
2023/01/09 00:58:43;;;;;;;2.97;0.20;;;9.70;80.40;;;;;;5090428;28;20141;-59
2023/01/09 01:01:09;;;;;;;0.20;0.20;;;9.60;80.20;;;;;;5081281;28;20024;-59
2023/01/09 01:03:34;;;;;;;0.93;0.50;;;9.60;80.30;;;;;;5091392;28;20024;-66
2023/01/09 01:08:45;;;;;;;0.30;0.30;;;9.50;80.20;;;;;;5092542;28;20447;-59
2023/01/09 01:11:11;;;;;;;0.88;0.40;;;9.40;80.20;;;;;;5087768;28;20036;-59
2023/01/09 01:13:39;;;;;;;0.95;0.40;;;9.30;80.30;;;;;;5089958;28;20391;-59
2023/01/09 01:16:07;;;;;;;0.10;0.10;;;9.30;80.30;;;;;;5101010;28;20035;-59
2023/01/09 01:18:32;;;;;;;0.55;0.50;;;9.40;80.20;;;;;;5088407;28;20067;-60
2023/01/09 01:20:58;;;;;;;0.68;0.30;;;9.30;80.10;;;;;;5082725;28;20063;-59
2023/01/09 01:23:24;;;;;;;0.35;0.30;;;9.30;80.10;;;;;;5089762;28;20032;-66
2023/01/09 01:25:50;;;;;;;0.10;0.10;;;9.30;80.00;;;;;;5098510;28;20073;-58
2023/01/09 01:28:16;;;;;;;0.30;0.25;;;9.30;80.00;;;;;;5084833;28;20059;-59
2023/01/09 01:30:42;;;;;;;0.28;0.22;;;9.30;80.00;;;;;;5100582;28;20027;-60
2023/01/09 01:33:09;;;;;;;0.30;0.30;;;9.20;80.00;;;;;;5102695;28;20055;-68
2023/01/09 01:35:35;;;;;;;0.38;0.20;;;9.20;80.10;;;;;;5103117;28;20028;-67
2023/01/09 01:38:01;;;;;;;0.20;0.20;;;9.20;80.20;;;;;;5099592;28;20062;-68
2023/01/09 01:40:27;;;;;;;0.15;0.15;;;9.10;80.10;;;;;;5079875;28;20096;-60
2023/01/09 01:42:55;;;;;;;0.20;0.20;;;9.20;80.30;;;;;;5099435;28;20580;-60
2023/01/09 01:45:28;;;;;;;0.20;0.20;;;9.10;80.30;;;;;;5085820;28;20031;-61
2023/01/09 01:47:59;;;;;;;0.30;0.20;;;9.10;80.40;;;;;;5089546;28;20035;-60
2023/01/09 01:50:32;;;;;;;0.93;0.50;;;9.10;80.40;;;;;;5078139;28;20020;-60
2023/01/09 01:53:14;;;;;;;0.75;0.20;;;9.10;80.50;;;;;;5100585;28;20382;-67
2023/01/09 01:55:59;;;;;;;0.80;0.30;;;9.10;80.40;;;;;;5092683;28;20040;-67
2023/01/09 01:58:25;;;;;;;0.45;0.35;;;9.10;80.50;;;;;;5102236;28;20062;-67
2023/01/09 02:00:51;;;;;;;0.50;0.50;;;9.00;80.50;;;;;;5092777;28;20509;-67
2023/01/09 02:03:19;;;;;;;0.43;0.38;;;9.10;80.50;;;;;;5093093;28;20114;-68
2023/01/09 02:05:45;;;;;;;0.50;0.50;;;9.00;80.50;;;;;;5088334;28;20078;-68
2023/01/09 02:08:11;;;;;;;0.40;0.40;;;9.00;80.60;;;;;;5080552;28;20084;-60
2023/01/09 02:10:38;;;;;;;0.20;0.20;;;9.00;80.70;;;;;;5089872;28;20036;-68
2023/01/09 02:13:05;;;;;;;1.05;0.30;;;8.90;80.80;;;;;;5095340;28;20026;-60
2023/01/09 02:16:11;;;;;;;0.73;0.65;;;8.90;80.90;;;;;;5078891;28;20452;-59
2023/01/09 02:18:52;;;;;;;0.32;0.30;;;8.90;81.00;;;;;;5080466;28;20028;-68
2023/01/09 02:21:23;;;;;;;1.33;0.50;;;8.80;81.20;;;;;;5098327;28;20034;-60
2023/01/09 02:24:07;;;;;;;1.20;0.40;;;8.70;81.20;;;;;;5106181;28;20554;-60
2023/01/09 02:26:58;;;;;;;0.63;0.47;;;8.80;81.30;;;;;;5086187;28;20059;-67
2023/01/09 02:30:02;;;;;;;0.45;0.45;;;8.70;81.40;;;;;;5105710;28;20026;-67
2023/01/09 02:32:39;;;;;;;0.40;0.30;;;8.60;81.40;;;;;;5095547;28;20740;-60
2023/01/09 02:35:33;;;;;;;0.30;0.30;;;8.60;82.10;;;;;;5092635;28;20031;-60
2023/01/09 02:38:24;;;;;;;0.60;0.60;;;8.60;81.50;;;;;;5090546;28;20110;-60
2023/01/09 02:40:58;;;;;;;0.70;0.50;;;8.60;81.60;;;;;;5090741;28;20040;-67
2023/01/09 02:43:25;;;;;;;1.38;0.60;;;8.60;81.70;;;;;;5087883;28;20024;-59
2023/01/09 02:45:51;;;;;;;0.55;0.50;;;8.60;81.60;;;;;;5087873;28;20060;-67
2023/01/09 02:48:17;;;;;;;3.95;0.75;;;8.60;81.70;;;;;;5094775;28;20542;-67
2023/01/09 02:50:42;;;;;;;1.13;0.70;;;8.60;81.70;;;;;;5106363;28;20419;-60
2023/01/09 02:53:27;;;;;;;0.43;0.43;;;8.70;81.70;;;;;;5097855;28;20099;-59
2023/01/09 02:56:04;;;;;;;0.45;0.45;;;8.70;81.60;;;;;;5082677;28;20032;-67
2023/01/09 02:58:57;;;;;;;0.40;0.40;;;8.70;81.70;;;;;;5099022;28;20043;-67
2023/01/09 03:01:37;;;;;;;;;;;8.70;81.60;;;;;;5100544;28;20040;-67
2023/01/09 03:04:15;;;;;;;0.50;0.50;;;8.60;81.70;;;;;;5095166;28;19998;-67
2023/01/09 03:06:57;;;;;;;2.80;0.93;;;8.60;81.90;;;;;;5095616;28;20047;-58
2023/01/09 03:09:26;;;;;;;;;;;8.60;81.90;;;;;;5086674;28;20039;-59
2023/01/09 03:12:00;;;;;;;0.63;0.45;;;8.60;82.00;;;;;;5085453;28;19911;-59
2023/01/09 03:14:26;;;;;;;0.40;0.32;;;8.50;82.20;;;;;;5097485;28;20016;-59
2023/01/09 03:16:57;;;;;;;0.95;0.82;;;8.50;82.40;;;;;;5081486;28;20056;-67
2023/01/09 03:19:28;;;;;;;0.30;0.30;;;8.50;82.30;;;;;;5091104;28;20016;-66
2023/01/09 03:21:55;;;;;;;0.80;0.77;;;8.50;82.10;;;;;;5097028;28;20024;-67
2023/01/09 03:24:21;;;;;;;1.75;0.50;;;8.50;82.10;;;;;;5094841;28;20123;-67
2023/01/09 03:26:47;;;;;;;0.77;0.75;;;8.60;82.00;;;;;;5087709;28;20036;-68
2023/01/09 03:29:12;;;;;;;0.52;0.52;;;8.60;81.90;;;;;;5106487;28;20053;-59
2023/01/09 03:31:38;;;;;;;1.13;0.73;;;8.60;81.90;;;;;;5097299;28;20057;-60
2023/01/09 03:34:04;;;;;;;2.53;0.60;;;8.60;81.80;;;;;;5080375;28;20024;-60
2023/01/09 03:36:30;;;;;;;0.63;0.63;;;8.60;81.80;;;;;;5093120;28;20383;-67
2023/01/09 03:38:55;;;;;;;1.85;0.45;;;8.60;81.70;;;;;;5097608;28;20134;-68
2023/01/09 03:41:21;;;;;;;0.57;0.52;;;8.50;81.80;;;;;;5078559;28;20062;-60
2023/01/09 03:43:47;;;;;;;1.42;0.60;;;8.50;81.80;;;;;;5096020;28;20180;-68
2023/01/09 03:46:14;;;;;;;0.45;0.45;;;8.50;81.90;;;;;;5081837;28;20043;-68
2023/01/09 03:48:40;;;;;;;0.65;0.50;;;8.50;81.80;;;;;;5104320;28;20066;-67
2023/01/09 03:51:05;;;;;;;1.02;0.80;;;8.40;81.80;;;;;;5099522;28;20047;-67
2023/01/09 03:53:31;;;;;;;7.47;0.73;;;8.40;81.90;;;;;;5084297;28;20023;-59
2023/01/09 03:55:57;;;;;;;0.50;0.50;;;8.30;82.00;;;;;;5083709;28;20040;-67
2023/01/09 03:58:24;;;;;;;1.48;0.63;;;8.30;82.00;;;;;;5098985;28;20031;-67
2023/01/09 04:00:51;;;;;;;1.02;0.60;;;8.30;81.90;;;;;;5093335;28;20024;-68
2023/01/09 04:03:19;;;;;;;0.60;0.60;;;8.30;81.80;;;;;;5091227;28;20043;-60
2023/01/09 04:05:47;;;;;;;0.73;0.57;;;8.40;81.80;;;;;;5098333;28;20225;-68
2023/01/09 04:08:13;;;;;;;1.20;0.52;;;8.30;81.60;;;;;;5096505;28;20109;-68
2023/01/09 04:10:39;;;;;;;3.17;0.57;;;8.30;81.60;;;;;;5101796;28;20028;-60
2023/01/09 04:13:04;;;;;;;3.63;1.35;;;8.30;81.60;;;;;;5099505;28;20063;-70
2023/01/09 04:15:30;;;;;;;0.63;0.52;;;8.30;81.60;;;;;;5070237;28;20562;-62
2023/01/09 04:17:56;;;;;;;0.90;0.60;;;8.20;81.50;;;;;;5060630;28;20407;-69
2023/01/09 04:20:21;;;;;;;0.45;0.40;;;8.20;81.70;;;;;;5064793;28;20513;-61
2023/01/09 04:22:47;;;;;;;1.98;0.43;;;8.20;81.70;;;;;;5093039;28;20490;-61
2023/01/09 04:25:13;;;;;;;4.47;0.80;;;8.20;81.70;;;;;;5093525;28;20034;-67
2023/01/09 04:27:38;;;;;;;2.03;0.65;;;8.20;81.70;;;;;;5087755;28;20540;-61
2023/01/09 04:30:05;;;;;;;1.67;0.60;;;8.10;82.20;;;;;;5099366;28;20019;-59
2023/01/09 04:32:31;;;;;;;0.77;0.50;;;8.20;81.70;;;;;;5094873;28;20038;-60
2023/01/09 04:34:57;;;;;;;2.50;0.60;;;8.10;81.60;;;;;;5092451;28;20028;-69
2023/01/09 04:37:23;;;;;;;1.45;0.55;;;8.10;81.60;;;;;;5056125;28;20496;-61
2023/01/09 04:39:50;;;;;;;1.23;0.63;;;8.10;81.80;;;;;;5112789;27;20028;-58
2023/01/09 04:42:16;;;;;;;1.67;0.52;;;8.10;81.80;;;;;;5104442;28;20478;-59
2023/01/09 04:44:41;;;;;;;0.47;0.35;;;8.00;81.80;;;;;;5100914;28;20038;-65
2023/01/09 04:47:07;;;;;;;0.85;0.75;;;8.00;81.80;;;;;;5085160;28;20469;-68
2023/01/09 04:49:33;;;;;;;0.50;0.40;;;8.10;81.90;;;;;;5091971;28;20028;-68
2023/01/09 04:51:58;;;;;;;1.27;0.60;;;8.10;81.80;;;;;;5098210;28;20019;-68
2023/01/09 04:54:24;;;;;;;2.72;0.95;;;8.10;81.80;;;;;;5106075;28;20027;-60
2023/01/09 04:56:50;;;;;;;1.73;0.65;;;8.10;81.70;;;;;;5104053;28;20096;-60
2023/01/09 04:59:15;;;;;;;1.38;0.90;;;8.20;81.80;;;;;;5104474;28;20030;-68
2023/01/09 05:01:41;;;;;;;1.38;0.50;;;8.20;81.70;;;;;;5078285;28;20085;-59
2023/01/09 05:04:07;;;;;;;3.90;0.85;;;8.20;81.70;;;;;;5090563;28;20115;-59
2023/01/09 05:06:33;;;;;;;1.35;0.77;;;8.30;81.70;;;;;;5066550;28;20061;-59
2023/01/09 05:08:59;;;;;;;0.60;0.60;;;8.30;81.70;;;;;;5061455;28;20128;-58
2023/01/09 05:11:26;;;;;;;5.25;1.13;;;8.30;81.60;;;;;;5042176;28;20021;-67
2023/01/09 05:13:52;;;;;;;1.85;0.77;;;8.30;81.50;;;;;;5052279;28;20025;-60
2023/01/09 05:16:19;;;;;;;3.05;0.70;;;8.30;81.50;;;;;;5063704;28;20020;-59
2023/01/09 05:18:44;;;;;;;1.58;0.63;;;8.30;81.60;;;;;;5056145;28;20116;-59
2023/01/09 05:21:11;;;;;;;1.55;0.85;;;8.40;81.60;;;;;;5055107;28;20112;-60
2023/01/09 05:23:37;;;;;;;3.05;1.05;;;8.40;81.50;;;;;;5058705;28;20044;-59
2023/01/09 05:26:06;;;;;;;1.73;0.68;;;8.40;81.60;;;;;;5052074;28;20059;-59
2023/01/09 05:28:32;;;;;;;2.38;0.93;;;8.30;81.60;;;;;;5050997;28;20113;-59
2023/01/09 05:30:57;;;;;;;2.05;1.00;;;8.30;81.70;;;;;;5040722;28;20029;-60
2023/01/09 05:33:26;;;;;;;0.70;0.60;;;8.30;81.90;;;;;;5044520;28;20025;-67
2023/01/09 05:35:52;;;;;;;0.90;0.60;;;8.30;81.90;;;;;;5059916;28;20079;-67
2023/01/09 05:38:18;;;;;;;1.63;0.40;;;8.30;81.90;;;;;;5060562;28;20067;-68
2023/01/09 05:40:43;;;;;;;0.35;0.35;;;8.30;81.80;;;;;;5058202;28;20028;-60
2023/01/09 05:43:09;;;;;;;1.38;0.77;;;8.30;81.90;;;;;;5049831;28;20536;-60
2023/01/09 05:45:35;;;;;;;1.60;0.93;;;8.30;81.80;;;;;;5045779;28;20037;-59
2023/01/09 05:48:00;;;;;;;2.13;0.95;;;8.40;81.80;;;;;;5043870;28;20017;-60
2023/01/09 05:50:26;;;;;;;1.48;1.13;;;8.40;81.90;;;;;;5048190;28;20033;-60
2023/01/09 05:52:52;;;;;;;0.80;0.50;;;8.40;81.90;;;;;;5044010;28;20083;-68
2023/01/09 05:55:17;;;;;;;2.00;1.02;;;8.40;81.90;;;;;;5049455;28;20035;-67
2023/01/09 05:57:43;;;;;;;2.33;1.02;;;8.40;81.80;;;;;;5048380;28;20033;-65
2023/01/09 06:00:09;;;;;;;1.38;0.82;;;8.40;81.80;;;;;;5056298;28;20036;-67
2023/01/09 06:02:35;;;;;;;1.42;1.27;;;8.30;81.70;;;;;;5048385;28;20499;-60
2023/01/09 06:05:01;;;;;;;0.85;0.82;;;8.30;81.80;;;;;;5052532;28;20119;-66
2023/01/09 06:07:26;;;;;;;3.33;0.80;;;8.30;81.90;;;;;;5085739;28;20414;-67
2023/01/09 06:09:52;;;;;;;5.47;1.00;;;8.40;81.90;;;;;;5071238;28;20036;-69
2023/01/09 06:12:18;;;;;;;0.43;0.38;;;8.30;81.90;;;;;;5063718;28;20125;-61
2023/01/09 06:14:43;;;;;;;2.25;1.20;;;8.40;81.90;;;;;;5051302;28;20037;-68
2023/01/09 06:17:10;;;;;;;0.98;0.55;;;8.40;81.90;;;;;;5066364;28;20076;-68
2023/01/09 06:19:35;;;;;;;2.28;0.65;;;8.40;81.80;;;;;;5066159;28;20358;-60
2023/01/09 06:22:01;;;;;;;0.68;0.50;;;8.40;81.80;;;;;;5063798;28;20485;-61
2023/01/09 06:24:27;;;;;;;2.65;0.70;;;8.50;81.80;;;;;;5090282;28;20044;-60
2023/01/09 06:26:53;;;;;;;3.33;0.47;;;8.50;81.70;;;;;;5092467;28;20020;-67
2023/01/09 06:29:19;;;;;;;1.20;0.60;;;8.50;81.60;;;;;;5097557;28;20440;-61
2023/01/09 06:31:44;;;;;;;0.60;0.60;;;8.50;81.70;;;;;;5099899;28;20544;-60
2023/01/09 06:34:11;;;;;;;1.45;1.02;;;8.50;81.70;;;;;;5095669;28;20167;-61
2023/01/09 06:36:37;;;;;;;0.63;0.40;;;8.60;81.70;;;;;;5085150;28;20032;-69
2023/01/09 06:39:03;;;;;;;4.30;0.60;;;8.50;81.60;;;;;;5094396;28;20047;-61
2023/01/09 06:41:28;;;;;;;0.82;0.47;;;8.60;81.60;;;;;;5094677;28;20161;-61
2023/01/09 06:43:54;;;;;;;0.85;0.47;;;8.60;81.50;;;;;;5097667;28;20024;-60
2023/01/09 06:46:20;;;;;;;1.27;0.75;;;8.60;81.50;;;;;;5068851;28;20154;-61
2023/01/09 06:48:46;;;;;;;1.65;0.77;;;8.60;81.60;;;;;;5082679;28;20419;-61
2023/01/09 06:51:12;;;;;;;1.92;1.05;;;8.50;81.70;;;;;;5086320;28;20040;-61
2023/01/09 06:53:37;;;;;;;1.17;0.45;;;8.60;81.80;;;;;;5099689;28;20474;-60
2023/01/09 06:56:04;;;;;;;3.72;0.60;;;8.60;81.90;;;;;;5109215;28;20024;-60
2023/01/09 06:58:29;;;;;;;0.55;0.52;;;8.60;81.90;;;;;;5096429;28;20036;-60
2023/01/09 07:00:57;;;;;;;1.65;0.98;;;8.70;81.80;;;;;;5104799;28;20356;-61
2023/01/09 07:03:22;;;;;;;4.18;0.98;;;8.70;81.70;;;;;;5099684;28;20020;-68
2023/01/09 07:05:48;;;;;;;1.27;0.80;;;8.70;81.70;;;;;;5095213;28;20397;-69
2023/01/09 07:08:14;;;;;;;7.97;1.42;;;8.70;81.70;;;;;;5080314;28;20374;-60
2023/01/09 07:10:41;;;;;;;4.22;0.65;;;8.70;81.70;;;;;;5099377;28;20412;-59
2023/01/09 07:13:07;;;;;;;1.50;0.90;;;8.70;81.80;;;;;;5095048;28;20420;-67
2023/01/09 07:15:32;;;;;;;0.95;0.50;;;8.70;81.80;;;;;;5102482;28;20028;-60
2023/01/09 07:17:58;;;;;;;5.07;1.10;;;8.70;81.70;;;;;;5091088;28;20027;-66
2023/01/09 07:20:24;;;;;;;1.50;0.70;;;8.80;81.90;;;;;;5094720;28;20489;-67
2023/01/09 07:22:50;;;;;;;1.48;0.85;;;8.80;81.90;;;;;;5097249;28;20496;-61
2023/01/09 07:25:15;;;;;;;0.98;0.73;;;8.80;81.90;;;;;;5080822;28;20020;-68
2023/01/09 07:27:41;;;;;;;4.55;1.00;;;8.80;82.00;;;;;;5092135;28;20027;-60
2023/01/09 07:30:08;;;;;;;0.70;0.70;;;8.80;82.00;;;;;;5099867;28;20070;-60
2023/01/09 07:32:34;;;;;;;3.38;0.70;;;8.80;82.00;;;;;;5099786;28;20070;-60
2023/01/09 07:35:00;;;;;;;1.00;0.70;;;8.80;82.20;;;;;;5097225;28;20157;-60
2023/01/09 07:37:25;;;;;;;2.95;0.80;;;8.80;82.10;;;;;;5104776;28;20073;-66
2023/01/09 07:39:51;;;;;;;2.55;0.85;;;8.80;82.10;;;;;;5098075;28;20129;-61
2023/01/09 07:42:17;;;;;;;3.67;0.60;;;8.90;82.10;;;;;;5101372;28;20055;-66
2023/01/09 07:44:43;;;;;;;1.58;0.57;;;8.80;82.20;;;;;;5074263;28;20032;-67
2023/01/09 07:47:08;;;;;;;6.72;0.85;;;8.80;82.20;;;;;;5068217;28;20023;-66
2023/01/09 07:49:34;;;;;;;1.40;0.90;;;8.80;82.20;;;;;;5096286;28;20036;-59
2023/01/09 07:52:00;;;;;;;1.80;1.02;;;8.80;82.50;;;;;;5102515;28;20094;-59
2023/01/09 07:54:25;;;;;;;1.02;0.65;;;8.80;82.60;;;;;;5097901;28;20039;-61
2023/01/09 07:56:51;;;;;;;0.80;0.73;;;8.80;82.70;;;;;;5078138;28;20111;-68
2023/01/09 07:59:17;;;;;;;3.40;1.30;;;8.70;82.90;;;;;;5103415;28;20534;-60
2023/01/09 08:01:43;;;;;;;2.65;0.70;;;8.80;83.00;;;;;;5091637;28;20024;-60
2023/01/09 08:04:08;;;;;;;1.67;1.17;;;8.70;83.10;;;;;;5091666;28;20036;-60
2023/01/09 08:06:34;;;;;;;0.57;0.57;;;8.80;83.20;;;;;;5094276;28;20486;-60
2023/01/09 08:09:00;;;;;;;0.77;0.50;;;8.80;83.20;;;;;;5109479;28;20036;-67
2023/01/09 08:11:25;;;;;;;2.08;0.80;;;8.80;83.30;;;;;;5083277;28;20028;-68
2023/01/09 08:13:51;;;;;;;2.15;1.38;;;8.80;83.40;;;;;;5106165;28;20040;-58
2023/01/09 08:16:17;;;;;;;4.65;0.80;;;8.80;83.40;;;;;;5088963;28;20028;-66
2023/01/09 08:18:43;;;;;;;1.38;0.88;;;8.80;83.50;;;;;;5099678;28;20028;-67
2023/01/09 08:21:10;;;;;;;1.05;0.68;;;8.80;84.20;;;;;;5100107;28;20027;-60
2023/01/09 08:23:36;;;;;;;6.43;1.05;;;8.70;83.80;;;;;;5094998;28;20467;-59
2023/01/09 08:26:02;;;;;;;1.00;0.65;;;8.70;83.80;;;;;;5100341;28;20031;-58
2023/01/09 08:28:28;;;;;;;3.10;0.75;;;8.70;84.10;;;;;;5096455;28;20134;-66
2023/01/09 08:30:54;;;;;;;3.22;0.98;;;8.70;84.30;;;;;;5088749;28;20469;-66
2023/01/09 08:33:20;;;;;;;1.85;1.23;;;8.60;84.30;;;;;;5097783;28;20028;-66
2023/01/09 08:35:46;;;;;;;2.63;0.98;;;8.60;84.40;;;;;;5103501;28;20035;-58
2023/01/09 08:38:11;;;;;;;1.10;0.80;;;8.60;84.40;;;;;;5090525;28;20160;-65
2023/01/09 08:40:37;;;;;;;1.10;1.00;;;8.60;84.40;;;;;;5104821;28;20425;-60
2023/01/09 08:48:31;;;;;;;2.05;0.80;;;8.60;84.80;;;;;;5085470;28;20116;-69
2023/01/09 08:50:57;;;;;;;1.92;1.15;;;8.50;85.00;;;;;;5099743;28;20102;-66
2023/01/09 08:53:23;;;;;;;2.40;1.23;;;8.60;85.00;;;;;;5106018;28;20024;-67
2023/01/09 08:55:48;;;;;;;1.33;0.88;;;8.60;84.90;;;;;;5096813;28;20131;-66
2023/01/09 08:58:14;;;;;;;1.85;0.70;;;8.60;84.80;;;;;;5093177;28;20398;-60
2023/01/09 09:00:40;;;;;;;2.00;1.33;;;8.60;84.80;;;;;;5103847;28;20534;-60
2023/01/09 09:03:06;;;;;;;4.38;1.10;;;8.60;84.80;;;;;;5094809;28;20074;-66
2023/01/09 09:05:32;;;;;;;1.17;0.80;;;8.70;85.10;;;;;;5098280;28;20028;-60
2023/01/09 09:07:58;;;;;;;1.63;1.00;;;8.70;85.00;;;;;;5071798;28;20119;-67
2023/01/09 09:10:26;;;;;;;4.35;0.73;;;8.70;85.00;;;;;;5075836;28;20028;-67
2023/01/09 09:12:54;;;;;;;1.27;0.95;;;8.70;85.00;;;;;;5070383;28;20107;-68
2023/01/09 09:15:23;;;;;;;1.90;0.65;;;8.70;85.00;;;;;;5102442;27;20032;-67
2023/01/09 09:18:04;;;;;;;0.50;0.50;;;8.70;84.90;;;;;;5071698;28;20503;-67
2023/01/09 09:20:32;;;;;;;0.88;0.85;;;8.70;85.00;;;;;;5069871;28;20430;-60
2023/01/09 09:22:58;;;;;;;1.20;1.10;;;8.70;85.20;;;;;;5070740;28;20063;-59
2023/01/09 09:25:23;;;;;;;1.35;0.85;;;8.70;85.20;;;;;;5053399;28;20028;-59
2023/01/09 09:27:49;;;;;;;3.88;1.13;;;8.70;85.30;;;;;;5064074;28;20103;-60
2023/01/09 09:30:17;;;;;;;1.42;0.98;;;8.70;85.30;;;;;;5071081;28;20035;-60
2023/01/09 09:32:43;;;;;;;1.73;1.17;;;8.70;85.30;;;;;;5069782;28;20044;-60
2023/01/09 09:35:09;;;;;;;1.50;0.88;;;8.80;85.40;;;;;;5062760;28;20028;-59
2023/01/09 09:37:35;;;;;;;2.67;1.63;;;8.80;85.40;;;;;;5069023;28;20479;-59
2023/01/09 09:40:01;;;;;;;1.15;1.05;;;8.70;85.40;;;;;;5079609;28;20027;-64
2023/01/09 09:45:51;;;;;;;1.73;0.88;;;8.80;85.30;;;;;;5078282;28;20039;-65
2023/01/09 09:48:37;;;;;;;1.95;1.08;;;8.80;85.30;;;;;;5084475;28;20031;-59
2023/01/09 09:51:09;;;;;;;0.63;0.63;;;8.90;85.20;;;;;;5060759;28;20009;-59
2023/01/09 09:53:54;;;;;;;4.27;1.30;;;8.80;85.20;;;;;;5071563;28;20081;-59
2023/01/09 09:56:22;;;;;;;1.50;1.10;;;8.90;85.20;;;;;;5082518;28;20659;-65
2023/01/09 09:58:56;;;;;;;3.35;0.77;;;8.90;85.10;;;;;;5081489;28;20430;-65
2023/01/09 10:01:35;;;;;;;2.30;1.13;;;8.90;85.00;;;;;;5081742;28;20093;-66
2023/01/09 10:04:08;;;;;;;1.52;0.90;;;8.80;85.10;;;;;;5069202;28;20012;-67
2023/01/09 10:06:40;;;;;;;2.05;1.08;;;8.80;85.20;;;;;;5073606;28;20028;-61
2023/01/09 10:09:48;;;;;;;1.58;1.08;;;8.90;85.40;;;;;;5087668;28;20036;-61
2023/01/09 10:12:57;;;;;;;2.85;1.02;;;8.90;85.40;;;;;;5040962;28;20041;-59
2023/01/09 10:15:57;;;;;;;0.98;0.63;;;8.90;85.40;;;;;;5027398;28;20502;-60
2023/01/09 10:18:31;;;;;;;2.05;1.00;;;9.00;85.50;;;;;;5012450;28;20038;-65
2023/01/09 10:21:04;;;;;;;4.10;1.20;;;9.00;85.60;;;;;;5077819;28;20089;-60
2023/01/09 10:23:33;;;;;;;1.85;0.90;;;9.10;85.60;;;;;;5071934;28;20544;-65
2023/01/09 10:26:19;;;;;;;0.60;0.60;;;9.10;85.50;;;;;;5073205;28;20027;-65
2023/01/09 10:29:21;;;;;;;1.63;1.13;;;9.20;85.50;;;;;;5085650;28;20414;-65
2023/01/09 10:32:08;;;;;;;3.70;1.27;;;9.20;85.50;;;;;;5081393;28;20036;-59
2023/01/09 10:35:11;;;;;;;5.28;1.30;;;9.20;85.60;;;;;;5090568;28;20051;-60
2023/01/09 10:37:43;;;;;;;1.17;1.08;;;9.30;85.50;;;;;;5084901;28;20419;-59
2023/01/09 10:40:35;;;;;;;3.72;1.30;;;9.30;85.40;;;;;;5093087;28;20059;-60
2023/01/09 10:43:09;;;;;;;1.95;1.20;;;9.40;85.20;;;;;;5104170;28;20024;-66
2023/01/09 10:45:41;;;;;;;0.82;0.82;;;9.40;85.00;;;;;;5077712;28;20492;-67
2023/01/09 10:48:27;;;;;;;1.13;0.70;;;9.50;84.80;;;;;;5093044;28;20027;-61
2023/01/09 10:50:55;;;;;;;3.00;0.95;;;9.50;84.40;;;;;;5098143;28;20024;-62
2023/01/09 10:53:26;;;;;;;2.13;1.20;;;9.60;84.50;;;;;;5112630;28;20020;-68
2023/01/09 10:55:56;;;;;;;3.58;1.33;;;9.60;84.40;;;;;;5108494;28;20039;-67
2023/01/09 10:58:22;;;;;;;2.78;0.93;;;9.60;84.20;;;;;;5078645;28;20060;-69
2023/01/09 11:00:49;;;;;;;5.45;0.98;;;9.50;84.20;;;;;;5094694;28;20035;-68
2023/01/09 11:03:18;;;;;;;1.25;0.80;;;9.50;84.10;;;;;;5080669;28;20050;-67
2023/01/09 11:05:51;;;;;;;1.23;1.08;;;9.40;84.30;;;;;;5092047;28;20020;-68
2023/01/09 11:08:41;;;;;;;5.65;1.50;;;9.50;84.60;;;;;;5096882;28;20040;-69
2023/01/09 11:11:08;;;;;;;2.55;0.90;;;9.80;84.20;;;;;;5098175;28;20032;-69
2023/01/09 11:13:37;;;;;;;3.05;0.82;;;10.00;83.50;;;;;;5096771;28;20469;-68
2023/01/09 11:16:22;;;;;;;1.40;0.90;;;10.30;82.80;;;;;;5079394;28;20032;-61
2023/01/09 11:18:51;;;;;;;1.27;0.85;;;10.60;81.20;;;;;;5088184;28;20402;-61
2023/01/09 11:21:26;;;;;;;2.10;1.30;;;10.80;80.80;;;;;;5096488;28;20015;-61
2023/01/09 11:23:53;;;;;;;3.90;1.05;;;10.80;80.00;;;;;;5092201;28;20028;-61
2023/01/09 11:26:27;;;;;;;2.25;1.23;;;11.50;80.80;;;;;;5104730;28;20523;-62
2023/01/09 11:29:11;;;;;;;0.85;0.82;;;13.20;76.20;;;;;;5090935;28;20475;-69
2023/01/09 11:31:38;;;;;;;0.85;0.63;;;13.90;72.60;;;;;;5099044;27;20450;-61
2023/01/09 11:34:13;;;;;;;1.80;0.85;;;14.70;70.80;;;;;;5076581;28;20114;-61
2023/01/09 11:36:38;;;;;;;1.10;0.95;;;14.40;68.70;;;;;;5091919;28;20297;-61
2023/01/09 11:39:04;;;;;;;1.83;0.55;;;13.50;69.90;;;;;;5083256;28;20129;-61
2023/01/09 11:41:35;;;;;;;2.25;0.80;;;12.70;72.30;;;;;;5103885;27;20032;-61
2023/01/09 11:44:03;;;;;;;1.48;0.98;;;12.00;74.40;;;;;;5107002;27;20036;-61
2023/01/09 11:46:36;;;;;;;2.20;1.02;;;11.50;75.70;;;;;;5092501;28;20028;-61
2023/01/09 11:49:22;;;;;;;2.17;0.85;;;11.00;77.00;;;;;;5091681;28;20042;-61
2023/01/09 11:52:14;;;;;;;1.73;0.80;;;10.70;78.20;;;;;;5088921;28;20113;-61
2023/01/09 11:55:03;;;;;;;1.13;0.80;;;10.50;79.10;;;;;;5090534;28;20040;-61
2023/01/09 11:57:29;;;;;;;1.17;0.77;;;10.40;79.80;;;;;;5090755;28;20055;-59
2023/01/09 12:00:00;;;;;;;1.05;0.75;;;10.40;80.30;;;;;;5095303;28;20356;-60
2023/01/09 12:02:44;;;;;;;0.73;0.55;;;10.40;80.50;;;;;;5090868;28;20039;-60
2023/01/09 12:05:16;;;;;;;1.80;1.02;;;10.50;80.10;;;;;;5094289;28;20036;-60
2023/01/09 12:07:50;;;;;;;1.67;0.93;;;10.60;80.40;;;;;;5096349;28;20048;-67
2023/01/09 12:10:39;;;;;;;6.57;0.88;;;11.40;80.00;;;;;;5087941;28;20346;-67
2023/01/09 12:13:33;;;;;;;1.05;0.70;;;11.80;77.10;;;;;;5091482;28;20513;-60
2023/01/09 12:16:29;;;;;;;1.80;0.70;;;11.60;77.10;;;;;;5090141;28;20052;-68
2023/01/09 12:19:09;;;;;;;3.40;1.23;;;11.50;77.40;;;;;;5089551;28;20028;-68
2023/01/09 12:21:44;;;;;;;0.98;0.88;;;11.30;77.70;;;;;;5090371;28;20028;-68
2023/01/09 12:24:22;;;;;;;4.35;1.58;;;11.20;78.20;;;;;;5090354;28;20038;-68
2023/01/09 12:27:10;;;;;;;0.52;0.52;;;11.20;78.10;;;;;;5086562;28;20052;-67
2023/01/09 12:30:03;;;;;;;1.27;0.80;;;11.10;78.30;;;;;;5089401;28;20024;-68
2023/01/09 12:32:52;;;;;;;1.33;1.10;;;10.90;78.70;;;;;;5088650;28;20036;-67
2023/01/09 12:35:23;;;;;;;2.45;1.23;;;10.70;79.30;;;;;;5091904;28;20036;-61
2023/01/09 12:38:20;;;;;;;1.13;0.98;;;10.60;79.60;;;;;;5092904;28;20061;-60
2023/01/09 12:41:09;;;;;;;1.25;0.95;;;10.70;79.40;;;;;;5094718;28;20482;-68
2023/01/09 12:43:50;;;;;;;3.42;1.55;;;10.70;79.40;;;;;;5090709;28;20029;-69
2023/01/09 12:46:19;;;;;;;1.83;1.23;;;10.70;79.20;;;;;;5091312;28;20437;-63
2023/01/09 12:48:50;;;;;;;4.03;1.17;;;10.60;79.40;;;;;;5090682;28;20395;-64
2023/01/09 12:51:23;;;;;;;4.00;1.00;;;10.50;79.60;;;;;;5085776;28;20039;-64
2023/01/09 12:54:14;;;;;;;2.17;1.33;;;10.50;80.00;;;;;;5090243;28;20385;-63
2023/01/09 12:56:47;;;;;;;4.53;0.90;;;10.60;80.10;;;;;;5094257;28;20656;-63
2023/01/09 12:59:29;;;;;;;9.65;0.90;;;10.60;80.10;;;;;;5095974;28;20024;-63
2023/01/09 13:02:19;;;;;;;1.73;0.90;;;10.60;80.10;;;;;;5095469;28;20110;-63
2023/01/09 13:04:54;;;;;;;2.50;0.65;;;10.60;80.00;;;;;;5085752;28;20415;-62
2023/01/09 13:07:48;;;;;;;2.88;1.00;;;10.60;80.10;;;;;;5087409;28;20048;-62
2023/01/09 13:10:22;;;;;;;1.98;0.80;;;10.60;80.10;;;;;;5060028;28;20032;-61
2023/01/09 13:12:49;;;;;;;3.85;1.38;;;10.50;80.20;;;;;;5089667;28;20020;-68
2023/01/09 13:15:46;;;;;;;3.45;1.20;;;10.50;80.30;;;;;;5090425;28;20111;-62
2023/01/09 13:18:45;;;;;;;3.38;0.98;;;10.50;80.50;;;;;;5091188;28;20031;-60
2023/01/09 13:21:12;;;;;;;3.35;1.38;;;10.40;81.10;;;;;;5082064;28;20038;-60
2023/01/09 13:24:06;;;;;;;3.03;1.52;;;10.40;81.50;;;;;;5088782;28;20024;-61
2023/01/09 13:26:36;;;;;;;4.75;1.52;;;10.40;81.40;;;;;;5086885;28;20386;-60